createdAt,value
2023-02-23T00:00:25.575Z,97.60
2023-02-23T00:01:25.624Z,97.71
2023-02-23T00:02:25.629Z,97.60
2023-02-23T00:03:25.661Z,97.71
2023-02-23T00:04:25.555Z,98.02
2023-02-23T00:05:25.539Z,98.02
2023-02-23T00:06:25.581Z,97.29
2023-02-23T00:07:25.565Z,97.50
2023-02-23T00:08:25.476Z,97.50
2023-02-23T00:09:34.787Z,97.50
2023-02-23T00:10:25.508Z,97.39
2023-02-23T00:11:25.452Z,96.88
2023-02-23T00:12:25.485Z,97.13
2023-02-23T00:13:25.426Z,97.55
2023-02-23T00:14:25.405Z,97.44
2023-02-23T00:15:25.568Z,97.44
2023-02-23T00:16:25.548Z,97.24
2023-02-23T00:17:25.390Z,97.75
2023-02-23T00:18:25.436Z,97.34
2023-02-23T00:19:25.510Z,98.07
2023-02-23T00:20:25.791Z,98.17
2023-02-23T00:21:25.422Z,98.58
2023-02-23T00:22:25.330Z,98.38
2023-02-23T00:23:25.473Z,98.38
2023-02-23T00:24:25.921Z,99.16
2023-02-23T00:25:25.299Z,98.90
2023-02-23T00:26:25.317Z,98.79
2023-02-23T00:27:25.276Z,98.90
2023-02-23T00:28:25.330Z,97.81
2023-02-23T00:29:25.274Z,98.69
2023-02-23T00:30:25.242Z,97.50
2023-02-23T00:31:25.223Z,98.95
2023-02-23T00:32:25.437Z,97.55
2023-02-23T00:33:25.241Z,97.55
2023-02-23T00:34:25.228Z,98.64
2023-02-23T00:35:25.176Z,97.91
2023-02-23T00:36:25.390Z,98.22
2023-02-23T00:37:25.159Z,98.22
2023-02-23T00:38:25.153Z,97.81
2023-02-23T00:39:25.152Z,98.02
2023-02-23T00:40:25.206Z,97.91
2023-02-23T00:41:25.113Z,98.22
2023-02-23T00:42:25.255Z,98.54
2023-02-23T00:43:25.234Z,98.12
2023-02-23T00:44:25.132Z,98.54
2023-02-23T00:45:25.149Z,98.43
2023-02-23T00:46:25.134Z,98.74
2023-02-23T00:47:25.442Z,98.39
2023-02-23T00:48:25.030Z,98.70
2023-02-23T00:49:25.039Z,98.08
2023-02-23T00:50:25.039Z,98.28
2023-02-23T00:51:25.085Z,98.08
2023-02-23T00:52:24.979Z,98.18
2023-02-23T00:53:24.996Z,98.33
2023-02-23T00:54:25.000Z,98.28
2023-02-23T00:55:24.973Z,98.18
2023-02-23T00:56:24.977Z,98.49
2023-02-23T00:57:25.060Z,98.49
2023-02-23T00:58:24.988Z,98.13
2023-02-23T00:59:25.032Z,98.49
2023-02-23T01:00:24.932Z,98.24
2023-02-23T01:01:25.186Z,97.83
2023-02-23T01:02:25.011Z,98.13
2023-02-23T01:03:24.858Z,98.03
2023-02-23T01:04:24.928Z,98.13
2023-02-23T01:05:24.839Z,97.93
2023-02-23T01:06:24.834Z,98.13
2023-02-23T01:07:24.852Z,98.18
2023-02-23T01:08:24.857Z,98.24
2023-02-23T01:09:24.789Z,97.72
2023-02-23T01:10:24.809Z,98.18
2023-02-23T01:11:24.785Z,98.13
2023-02-23T01:12:24.776Z,98.24
2023-02-23T01:13:24.792Z,97.93
2023-02-23T01:14:24.800Z,98.03
2023-02-23T01:15:24.910Z,98.03
2023-02-23T01:16:24.903Z,98.24
2023-02-23T01:17:24.713Z,98.34
2023-02-23T01:18:24.925Z,98.03
2023-02-23T01:19:24.728Z,98.44
2023-02-23T01:20:26.681Z,98.44
2023-02-23T01:21:24.670Z,98.44
2023-02-23T01:22:24.651Z,98.65
2023-02-23T01:23:24.649Z,98.65
2023-02-23T01:24:24.751Z,98.86
2023-02-23T01:25:24.662Z,98.34
2023-02-23T01:26:24.591Z,98.50
2023-02-23T01:27:24.604Z,98.30
2023-02-23T01:28:25.299Z,98.71
2023-02-23T01:29:24.733Z,98.44
2023-02-23T01:30:24.628Z,98.55
2023-02-23T01:31:24.676Z,98.50
2023-02-23T01:32:24.856Z,98.50
2023-02-23T01:33:24.545Z,98.19
2023-02-23T01:34:24.701Z,97.78
2023-02-23T01:35:24.665Z,97.67
2023-02-23T01:36:24.524Z,98.82
2023-02-23T01:37:24.533Z,98.50
2023-02-23T01:38:24.470Z,98.50
2023-02-23T01:39:24.485Z,97.88
2023-02-23T01:40:24.454Z,97.88
2023-02-23T01:41:24.473Z,97.99
2023-02-23T01:42:24.433Z,97.47
2023-02-23T01:43:24.485Z,97.67
2023-02-23T01:44:24.435Z,97.78
2023-02-23T01:45:24.398Z,97.57
2023-02-23T01:46:24.610Z,97.57
2023-02-23T01:47:24.501Z,97.47
2023-02-23T01:48:24.358Z,97.47
2023-02-23T01:49:24.340Z,97.47
2023-02-23T01:50:24.329Z,97.47
2023-02-23T01:51:24.323Z,97.67
2023-02-23T01:52:24.347Z,97.88
2023-02-23T01:53:24.286Z,98.09
2023-02-23T01:54:24.344Z,97.67
2023-02-23T01:55:24.501Z,97.67
2023-02-23T01:56:24.396Z,97.88
2023-02-23T01:57:24.269Z,97.72
2023-02-23T01:58:24.402Z,98.30
2023-02-23T01:59:24.217Z,98.19
2023-02-23T02:00:24.214Z,98.61
2023-02-23T02:01:24.581Z,98.65
2023-02-23T02:02:24.249Z,97.47
2023-02-23T02:03:24.202Z,97.62
2023-02-23T02:04:24.204Z,97.99
2023-02-23T02:05:24.297Z,98.19
2023-02-23T02:06:24.145Z,97.67
2023-02-23T02:07:24.336Z,97.78
2023-02-23T02:08:24.128Z,97.67
2023-02-23T02:09:24.139Z,97.57
2023-02-23T02:10:24.101Z,97.67
2023-02-23T02:11:24.083Z,97.99
2023-02-23T02:12:24.098Z,98.71
2023-02-23T02:13:24.246Z,97.67
2023-02-23T02:14:24.125Z,97.36
2023-02-23T02:15:24.084Z,98.82
2023-02-23T02:16:24.125Z,97.57
2023-02-23T02:17:24.022Z,97.36
2023-02-23T02:18:24.148Z,98.50
2023-02-23T02:19:24.020Z,97.36
2023-02-23T02:20:24.161Z,97.83
2023-02-23T02:21:24.027Z,98.65
2023-02-23T02:22:24.025Z,97.99
2023-02-23T02:23:23.974Z,98.09
2023-02-23T02:24:23.969Z,98.19
2023-02-23T02:25:24.142Z,97.99
2023-02-23T02:26:23.954Z,98.19
2023-02-23T02:27:23.910Z,97.99
2023-02-23T02:28:23.894Z,98.09
2023-02-23T02:29:24.216Z,97.99
2023-02-23T02:30:23.908Z,97.99
2023-02-23T02:31:24.005Z,98.09
2023-02-23T02:32:24.002Z,97.99
2023-02-23T02:33:23.848Z,98.19
2023-02-23T02:34:23.835Z,98.40
2023-02-23T02:35:23.952Z,98.40
2023-02-23T02:36:23.846Z,98.61
2023-02-23T02:37:23.865Z,98.71
2023-02-23T02:38:24.086Z,98.61
2023-02-23T02:39:23.781Z,98.61
2023-02-23T02:40:23.774Z,98.61
2023-02-23T02:41:23.770Z,98.40
2023-02-23T02:42:23.759Z,98.61
2023-02-23T02:43:23.769Z,98.09
2023-02-23T02:44:23.713Z,98.19
2023-02-23T02:45:23.779Z,98.30
2023-02-23T02:46:23.853Z,98.50
2023-02-23T02:47:23.692Z,98.50
2023-02-23T02:48:23.716Z,98.19
2023-02-23T02:49:23.666Z,98.50
2023-02-23T02:50:23.861Z,98.50
2023-02-23T02:51:23.754Z,98.09
2023-02-23T02:52:23.933Z,98.92
2023-02-23T02:53:23.640Z,98.82
2023-02-23T02:54:23.667Z,98.92
2023-02-23T02:55:23.592Z,98.50
2023-02-23T02:56:23.583Z,98.82
2023-02-23T02:57:23.590Z,98.50
2023-02-23T02:58:23.600Z,98.61
2023-02-23T02:59:23.666Z,98.82
2023-02-23T03:00:23.585Z,98.50
2023-02-23T03:01:23.746Z,98.61
2023-02-23T03:02:23.521Z,98.61
2023-02-23T03:03:23.523Z,98.50
2023-02-23T03:04:23.504Z,98.09
2023-02-23T03:05:23.591Z,97.99
2023-02-23T03:06:23.527Z,97.99
2023-02-23T03:07:23.460Z,98.15
2023-02-23T03:08:23.868Z,98.92
2023-02-23T03:09:23.533Z,97.78
2023-02-23T03:10:23.730Z,97.84
2023-02-23T03:11:23.461Z,98.92
2023-02-23T03:12:23.468Z,98.09
2023-02-23T03:13:23.396Z,98.82
2023-02-23T03:14:23.412Z,98.71
2023-02-23T03:15:23.378Z,98.25
2023-02-23T03:16:23.421Z,98.50
2023-02-23T03:17:23.388Z,98.09
2023-02-23T03:18:23.400Z,98.30
2023-02-23T03:19:23.326Z,98.61
2023-02-23T03:20:23.414Z,98.50
2023-02-23T03:21:23.318Z,98.71
2023-02-23T03:22:23.488Z,98.50
2023-02-23T03:23:23.423Z,98.61
2023-02-23T03:24:23.371Z,98.61
2023-02-23T03:25:23.270Z,98.61
2023-02-23T03:26:23.257Z,99.43
2023-02-23T03:27:23.403Z,99.17
2023-02-23T03:28:23.265Z,99.58
2023-02-23T03:29:23.217Z,99.99
2023-02-23T03:30:24.316Z,99.99
2023-02-23T03:31:23.228Z,99.99
2023-02-23T03:32:23.382Z,99.85
2023-02-23T03:33:23.221Z,99.79
2023-02-23T03:34:23.200Z,99.43
2023-02-23T03:35:23.149Z,99.23
2023-02-23T03:36:23.160Z,99.33
2023-02-23T03:37:23.149Z,98.92
2023-02-23T03:38:23.434Z,99.02
2023-02-23T03:39:23.136Z,98.96
2023-02-23T03:40:23.108Z,99.13
2023-02-23T03:41:23.080Z,98.96
2023-02-23T03:42:23.081Z,99.23
2023-02-23T03:43:23.403Z,99.23
2023-02-23T03:44:23.085Z,98.92
2023-02-23T03:45:23.067Z,99.02
2023-02-23T03:46:23.021Z,99.43
2023-02-23T03:47:23.023Z,99.43
2023-02-23T03:48:23.009Z,99.54
2023-02-23T03:49:23.045Z,99.02
2023-02-23T03:50:23.013Z,98.82
2023-02-23T03:51:22.968Z,98.50
2023-02-23T03:52:22.975Z,98.61
2023-02-23T03:53:22.948Z,97.99
2023-02-23T03:54:23.116Z,98.09
2023-02-23T03:55:23.181Z,98.30
2023-02-23T03:56:22.962Z,98.71
2023-02-23T03:57:22.951Z,98.61
2023-02-23T03:58:22.889Z,98.82
2023-02-23T03:59:22.892Z,99.13
2023-02-23T04:00:22.906Z,99.33
2023-02-23T04:01:22.885Z,99.43
2023-02-23T04:02:22.873Z,99.43
2023-02-23T04:03:22.879Z,99.02
2023-02-23T04:04:22.844Z,99.13
2023-02-23T04:05:23.363Z,99.02
2023-02-23T04:06:22.814Z,99.13
2023-02-23T04:07:22.820Z,99.64
2023-02-23T04:08:22.951Z,99.54
2023-02-23T04:09:23.120Z,99.43
2023-02-23T04:10:22.763Z,99.43
2023-02-23T04:11:22.792Z,99.43
2023-02-23T04:12:22.849Z,98.87
2023-02-23T04:13:22.764Z,99.43
2023-02-23T04:14:22.784Z,99.13
2023-02-23T04:15:22.815Z,99.23
2023-02-23T04:16:22.830Z,99.33
2023-02-23T04:17:22.676Z,99.08
2023-02-23T04:18:22.747Z,99.23
2023-02-23T04:19:22.644Z,99.13
2023-02-23T04:20:22.675Z,99.23
2023-02-23T04:21:22.741Z,99.64
2023-02-23T04:22:22.640Z,99.29
2023-02-23T04:23:22.615Z,99.43
2023-02-23T04:24:22.633Z,99.13
2023-02-23T04:25:22.578Z,98.92
2023-02-23T04:26:22.588Z,99.02
2023-02-23T04:27:22.572Z,99.02
2023-02-23T04:28:22.576Z,98.92
2023-02-23T04:29:22.553Z,98.82
2023-02-23T04:30:22.590Z,98.19
2023-02-23T04:31:24.873Z,98.61
2023-02-23T04:32:22.731Z,98.61
2023-02-23T04:33:22.517Z,98.61
2023-02-23T04:34:22.494Z,98.61
2023-02-23T04:35:22.529Z,98.40
2023-02-23T04:36:22.493Z,98.92
2023-02-23T04:37:22.449Z,98.82
2023-02-23T04:38:22.568Z,99.02
2023-02-23T04:39:22.430Z,99.02
2023-02-23T04:40:24.275Z,99.02
2023-02-23T04:41:22.431Z,98.82
2023-02-23T04:42:22.394Z,98.40
2023-02-23T04:43:22.478Z,98.50
2023-02-23T04:44:22.386Z,98.92
2023-02-23T04:45:22.509Z,98.92
2023-02-23T04:46:22.364Z,98.30
2023-02-23T04:47:22.418Z,98.50
2023-02-23T04:48:22.382Z,98.30
2023-02-23T04:49:22.400Z,98.19
2023-02-23T04:50:22.319Z,98.40
2023-02-23T04:51:22.325Z,97.99
2023-02-23T04:52:22.313Z,97.99
2023-02-23T04:53:22.343Z,98.61
2023-02-23T04:54:22.268Z,97.78
2023-02-23T04:55:22.257Z,97.36
2023-02-23T04:56:22.300Z,98.24
2023-02-23T04:57:22.274Z,98.34
2023-02-23T04:58:22.311Z,98.55
2023-02-23T04:59:22.260Z,98.03
2023-02-23T05:00:22.209Z,98.65
2023-02-23T05:01:22.496Z,98.96
2023-02-23T05:02:22.208Z,98.55
2023-02-23T05:03:22.190Z,98.65
2023-02-23T05:04:22.188Z,98.65
2023-02-23T05:05:22.131Z,98.55
2023-02-23T05:06:22.131Z,99.07
2023-02-23T05:07:22.137Z,99.17
2023-02-23T05:08:22.111Z,99.17
2023-02-23T05:09:22.141Z,98.86
2023-02-23T05:10:22.074Z,98.34
2023-02-23T05:11:22.063Z,98.65
2023-02-23T05:12:22.065Z,98.96
2023-02-23T05:13:22.068Z,98.70
2023-02-23T05:14:22.408Z,98.60
2023-02-23T05:15:22.210Z,98.49
2023-02-23T05:16:22.044Z,99.11
2023-02-23T05:17:21.998Z,99.52
2023-02-23T05:18:22.002Z,99.63
2023-02-23T05:19:21.996Z,99.11
2023-02-23T05:20:22.034Z,98.91
2023-02-23T05:21:22.010Z,99.22
2023-02-23T05:22:21.941Z,99.37
2023-02-23T05:23:22.039Z,99.37
2023-02-23T05:24:21.951Z,99.57
2023-02-23T05:25:21.923Z,99.99
2023-02-23T05:26:21.937Z,99.99
2023-02-23T05:27:21.887Z,99.99
2023-02-23T05:28:21.939Z,99.99
2023-02-23T05:29:21.874Z,99.99
2023-02-23T05:30:21.854Z,99.99
2023-02-23T05:31:22.288Z,99.99
2023-02-23T05:32:21.882Z,99.99
2023-02-23T05:33:21.841Z,99.99
2023-02-23T05:34:21.842Z,99.99
2023-02-23T05:35:21.812Z,99.52
2023-02-23T05:36:21.810Z,99.48
2023-02-23T05:37:21.798Z,99.38
2023-02-23T05:38:21.763Z,99.58
2023-02-23T05:39:21.805Z,99.58
2023-02-23T05:40:21.736Z,99.38
2023-02-23T05:41:22.163Z,99.38
2023-02-23T05:42:21.742Z,99.48
2023-02-23T05:43:21.837Z,99.13
2023-02-23T05:44:21.939Z,98.96
2023-02-23T05:45:21.684Z,99.58
2023-02-23T05:46:22.097Z,99.58
2023-02-23T05:47:21.856Z,99.48
2023-02-23T05:48:21.683Z,99.38
2023-02-23T05:49:21.664Z,99.69
2023-02-23T05:50:21.717Z,99.79
2023-02-23T05:51:21.905Z,99.79
2023-02-23T05:52:21.626Z,99.79
2023-02-23T05:53:21.690Z,99.48
2023-02-23T05:54:21.657Z,99.38
2023-02-23T05:55:21.610Z,99.17
2023-02-23T05:56:21.618Z,99.54
2023-02-23T05:57:21.559Z,99.02
2023-02-23T05:58:21.533Z,98.96
2023-02-23T05:59:21.540Z,99.13
2023-02-23T06:00:21.544Z,99.17
2023-02-23T06:01:21.645Z,99.23
2023-02-23T06:02:21.510Z,99.43
2023-02-23T06:03:21.680Z,99.13
2023-02-23T06:04:21.598Z,99.13
2023-02-23T06:05:21.482Z,99.13
2023-02-23T06:06:21.441Z,99.13
2023-02-23T06:07:21.478Z,98.92
2023-02-23T06:08:21.653Z,98.82
2023-02-23T06:09:21.419Z,98.92
2023-02-23T06:10:21.443Z,99.13
2023-02-23T06:11:21.869Z,99.02
2023-02-23T06:12:21.384Z,98.92
2023-02-23T06:13:21.553Z,98.97
2023-02-23T06:14:21.356Z,98.92
2023-02-23T06:15:21.385Z,99.13
2023-02-23T06:16:21.549Z,99.13
2023-02-23T06:17:21.368Z,98.87
2023-02-23T06:18:21.355Z,98.97
2023-02-23T06:19:21.377Z,98.87
2023-02-23T06:20:21.330Z,99.08
2023-02-23T06:21:21.393Z,99.39
2023-02-23T06:22:21.318Z,98.97
2023-02-23T06:23:21.259Z,99.08
2023-02-23T06:24:21.350Z,99.08
2023-02-23T06:25:21.234Z,99.18
2023-02-23T06:26:21.249Z,99.39
2023-02-23T06:27:21.322Z,99.64
2023-02-23T06:28:21.253Z,99.49
2023-02-23T06:29:21.196Z,99.49
2023-02-23T06:30:21.232Z,99.99
2023-02-23T06:31:21.608Z,99.99
2023-02-23T06:32:21.185Z,99.99
2023-02-23T06:33:21.198Z,99.99
2023-02-23T06:34:21.181Z,99.99
2023-02-23T06:35:21.171Z,99.99
2023-02-23T06:36:21.129Z,99.99
2023-02-23T06:37:21.136Z,99.99
2023-02-23T06:38:21.103Z,99.34
2023-02-23T06:39:21.130Z,99.34
2023-02-23T06:40:21.152Z,99.14
2023-02-23T06:41:21.346Z,99.34
2023-02-23T06:42:21.064Z,99.04
2023-02-23T06:43:23.149Z,98.88
2023-02-23T06:44:21.038Z,99.30
2023-02-23T06:45:21.042Z,99.30
2023-02-23T06:46:21.211Z,98.88
2023-02-23T06:47:20.992Z,98.88
2023-02-23T06:48:20.990Z,99.19
2023-02-23T06:49:20.974Z,99.30
2023-02-23T06:50:20.973Z,99.19
2023-02-23T06:51:21.380Z,99.30
2023-02-23T06:52:20.984Z,99.51
2023-02-23T06:53:20.930Z,98.68
2023-02-23T06:54:20.926Z,98.63
2023-02-23T06:55:20.936Z,98.32
2023-02-23T06:56:20.945Z,98.43
2023-02-23T06:57:20.870Z,98.22
2023-02-23T06:58:20.984Z,98.53
2023-02-23T06:59:20.888Z,98.43
2023-02-23T07:00:20.874Z,98.43
2023-02-23T07:01:21.091Z,98.11
2023-02-23T07:02:20.840Z,97.76
2023-02-23T07:03:20.850Z,97.55
2023-02-23T07:04:20.849Z,98.49
2023-02-23T07:05:21.008Z,97.45
2023-02-23T07:06:20.772Z,97.34
2023-02-23T07:07:20.803Z,97.45
2023-02-23T07:08:20.830Z,97.66
2023-02-23T07:09:20.738Z,97.66
2023-02-23T07:10:20.731Z,97.34
2023-02-23T07:11:21.194Z,97.14
2023-02-23T07:12:20.749Z,97.25
2023-02-23T07:13:20.960Z,97.14
2023-02-23T07:14:26.346Z,97.61
2023-02-23T07:15:21.676Z,97.09
2023-02-23T07:16:20.775Z,96.79
2023-02-23T07:17:20.656Z,97.09
2023-02-23T07:18:20.669Z,97.09
2023-02-23T07:19:20.680Z,96.69
2023-02-23T07:20:20.611Z,97.20
2023-02-23T07:21:20.795Z,97.09
2023-02-23T07:22:20.626Z,96.37
2023-02-23T07:23:20.595Z,96.84
2023-02-23T07:24:20.654Z,96.69
2023-02-23T07:25:20.638Z,96.48
2023-02-23T07:26:20.601Z,96.58
2023-02-23T07:27:20.529Z,96.89
2023-02-23T07:28:20.880Z,96.69
2023-02-23T07:29:20.542Z,96.33
2023-02-23T07:30:20.515Z,96.37
2023-02-23T07:31:20.861Z,96.58
2023-02-23T07:32:20.683Z,96.64
2023-02-23T07:33:20.471Z,96.33
2023-02-23T07:34:20.466Z,96.37
2023-02-23T07:35:20.495Z,96.33
2023-02-23T07:36:20.482Z,96.33
2023-02-23T07:37:20.529Z,96.33
2023-02-23T07:38:20.529Z,96.12
2023-02-23T07:39:20.462Z,96.44
2023-02-23T07:40:20.415Z,96.33
2023-02-23T07:41:20.815Z,96.53
2023-02-23T07:42:20.363Z,96.53
2023-02-23T07:43:20.365Z,96.53
2023-02-23T07:44:20.365Z,96.12
2023-02-23T07:45:20.330Z,95.92
2023-02-23T07:46:20.443Z,96.02
2023-02-23T07:47:20.346Z,96.12
2023-02-23T07:48:20.388Z,96.28
2023-02-23T07:49:20.362Z,96.08
2023-02-23T07:50:20.282Z,95.98
2023-02-23T07:51:20.816Z,96.08
2023-02-23T07:52:20.371Z,96.08
2023-02-23T07:53:20.280Z,96.18
2023-02-23T07:54:20.229Z,96.28
2023-02-23T07:55:20.300Z,96.28
2023-02-23T07:56:20.233Z,96.28
2023-02-23T07:57:21.624Z,96.08
2023-02-23T07:58:20.261Z,96.08
2023-02-23T07:59:20.378Z,96.18
2023-02-23T08:00:20.467Z,96.28
2023-02-23T08:01:20.614Z,96.24
2023-02-23T08:02:20.176Z,96.08
2023-02-23T08:03:20.219Z,96.08
2023-02-23T08:04:20.207Z,96.14
2023-02-23T08:05:20.296Z,96.03
2023-02-23T08:06:20.104Z,96.03
2023-02-23T08:07:20.115Z,96.14
2023-02-23T08:08:20.118Z,95.73
2023-02-23T08:09:20.088Z,96.03
2023-02-23T08:10:20.080Z,95.83
2023-02-23T08:11:20.467Z,95.83
2023-02-23T08:12:20.139Z,95.73
2023-02-23T08:13:20.065Z,95.83
2023-02-23T08:14:20.020Z,96.14
2023-02-23T08:15:20.032Z,96.30
2023-02-23T08:16:20.240Z,95.99
2023-02-23T08:17:20.163Z,95.99
2023-02-23T08:18:20.053Z,96.09
2023-02-23T08:19:20.403Z,96.14
2023-02-23T08:20:20.095Z,95.99
2023-02-23T08:21:20.384Z,96.20
2023-02-23T08:22:19.919Z,95.78
2023-02-23T08:23:20.013Z,95.78
2023-02-23T08:24:20.480Z,96.20
2023-02-23T08:25:20.024Z,95.53
2023-02-23T08:26:19.945Z,95.95
2023-02-23T08:27:19.943Z,95.74
2023-02-23T08:28:19.874Z,95.53
2023-02-23T08:29:20.037Z,95.89
2023-02-23T08:30:19.828Z,95.78
2023-02-23T08:31:20.279Z,96.15
2023-02-23T08:32:19.879Z,95.33
2023-02-23T08:33:19.845Z,94.92
2023-02-23T08:34:19.801Z,95.02
2023-02-23T08:35:19.803Z,95.23
2023-02-23T08:36:19.970Z,95.43
2023-02-23T08:37:19.758Z,95.23
2023-02-23T08:38:19.778Z,95.39
2023-02-23T08:39:19.729Z,94.98
2023-02-23T08:40:19.930Z,94.87
2023-02-23T08:41:20.328Z,94.98
2023-02-23T08:42:19.740Z,95.08
2023-02-23T08:43:19.709Z,95.18
2023-02-23T08:44:19.749Z,94.98
2023-02-23T08:45:19.694Z,94.93
2023-02-23T08:46:19.985Z,95.34
2023-02-23T08:47:19.645Z,95.34
2023-02-23T08:48:19.655Z,94.93
2023-02-23T08:49:19.650Z,94.83
2023-02-23T08:50:19.679Z,94.73
2023-02-23T08:51:19.960Z,94.58
2023-02-23T08:52:19.579Z,94.52
2023-02-23T08:53:19.712Z,94.58
2023-02-23T08:54:19.617Z,94.17
2023-02-23T08:55:19.606Z,94.48
2023-02-23T08:56:19.535Z,94.78
2023-02-23T08:57:19.545Z,94.37
2023-02-23T08:58:19.683Z,94.07
2023-02-23T08:59:19.617Z,93.82
2023-02-23T09:00:19.527Z,93.40
2023-02-23T09:01:19.940Z,93.82
2023-02-23T09:02:19.476Z,93.61
2023-02-23T09:03:19.456Z,93.82
2023-02-23T09:04:19.546Z,93.67
2023-02-23T09:05:19.610Z,93.71
2023-02-23T09:06:19.454Z,93.57
2023-02-23T09:07:19.449Z,93.46
2023-02-23T09:08:19.409Z,93.46
2023-02-23T09:09:19.419Z,93.67
2023-02-23T09:10:19.449Z,93.67
2023-02-23T09:11:19.729Z,92.80
2023-02-23T09:12:19.439Z,93.12
2023-02-23T09:13:19.393Z,92.60
2023-02-23T09:14:19.397Z,92.50
2023-02-23T09:15:19.407Z,93.32
2023-02-23T09:16:19.430Z,92.60
2023-02-23T09:17:19.338Z,92.66
2023-02-23T09:18:19.485Z,92.66
2023-02-23T09:19:19.280Z,92.66
2023-02-23T09:20:19.322Z,92.55
2023-02-23T09:21:19.883Z,92.55
2023-02-23T09:22:19.294Z,92.25
2023-02-23T09:23:19.310Z,92.51
2023-02-23T09:24:19.239Z,92.51
2023-02-23T09:25:19.353Z,92.31
2023-02-23T09:26:19.609Z,92.61
2023-02-23T09:27:19.196Z,92.41
2023-02-23T09:28:19.210Z,92.51
2023-02-23T09:29:19.189Z,92.31
2023-02-23T09:30:19.210Z,92.00
2023-02-23T09:31:19.700Z,91.80
2023-02-23T09:32:19.434Z,91.59
2023-02-23T09:33:19.159Z,91.69
2023-02-23T09:34:19.141Z,91.69
2023-02-23T09:35:19.175Z,91.86
2023-02-23T09:36:19.141Z,92.41
2023-02-23T09:37:19.082Z,92.47
2023-02-23T09:38:19.067Z,92.36
2023-02-23T09:39:29.132Z,91.75
2023-02-23T09:40:20.100Z,91.91
2023-02-23T09:41:19.378Z,91.61
2023-02-23T09:42:19.101Z,91.09
2023-02-23T09:43:19.012Z,91.50
2023-02-23T09:44:19.012Z,91.61
2023-02-23T09:45:19.060Z,90.89
2023-02-23T09:46:19.090Z,89.97
2023-02-23T09:47:19.011Z,91.09
2023-02-23T09:48:19.065Z,90.99
2023-02-23T09:49:18.976Z,91.30
2023-02-23T09:50:19.010Z,91.16
2023-02-23T09:51:19.255Z,90.95
2023-02-23T09:52:19.843Z,91.36
2023-02-23T09:53:19.409Z,91.26
2023-02-23T09:54:18.960Z,91.46
2023-02-23T09:55:19.410Z,90.95
2023-02-23T09:56:19.415Z,90.44
2023-02-23T09:57:18.936Z,90.44
2023-02-23T09:58:19.006Z,90.03
2023-02-23T09:59:18.981Z,90.81
2023-02-23T10:00:18.820Z,90.09
2023-02-23T10:01:19.269Z,89.17
2023-02-23T10:02:19.013Z,89.78
2023-02-23T10:03:18.870Z,89.68
2023-02-23T10:04:18.978Z,90.03
2023-02-23T10:05:18.776Z,89.72
2023-02-23T10:06:18.754Z,89.72
2023-02-23T10:07:18.774Z,90.84
2023-02-23T10:08:18.761Z,90.95
2023-02-23T10:09:18.739Z,91.01
2023-02-23T10:10:26.437Z,91.16
2023-02-23T10:11:19.138Z,90.91
2023-02-23T10:12:19.387Z,90.30
2023-02-23T10:13:18.751Z,90.30
2023-02-23T10:14:18.681Z,89.58
2023-02-23T10:15:18.676Z,89.53
2023-02-23T10:16:18.678Z,89.47
2023-02-23T10:17:18.664Z,89.27
2023-02-23T10:18:18.621Z,89.37
2023-02-23T10:19:18.636Z,89.33
2023-02-23T10:20:18.658Z,89.84
2023-02-23T10:21:19.001Z,89.23
2023-02-23T10:22:18.620Z,89.84
2023-02-23T10:23:18.599Z,89.53
2023-02-23T10:24:18.626Z,89.74
2023-02-23T10:25:18.567Z,89.23
2023-02-23T10:26:18.548Z,89.53
2023-02-23T10:27:18.539Z,89.53
2023-02-23T10:28:18.510Z,89.94
2023-02-23T10:29:18.517Z,89.84
2023-02-23T10:30:18.519Z,89.43
2023-02-23T10:31:18.881Z,89.84
2023-02-23T10:32:18.625Z,89.43
2023-02-23T10:33:18.478Z,89.43
2023-02-23T10:34:18.438Z,89.53
2023-02-23T10:35:18.430Z,89.23
2023-02-23T10:36:18.530Z,89.12
2023-02-23T10:37:18.403Z,89.74
2023-02-23T10:38:18.418Z,89.84
2023-02-23T10:39:18.385Z,89.64
2023-02-23T10:40:18.380Z,89.84
2023-02-23T10:41:18.775Z,89.17
2023-02-23T10:42:18.430Z,89.33
2023-02-23T10:43:18.348Z,89.23
2023-02-23T10:44:18.353Z,89.12
2023-02-23T10:45:18.318Z,89.03
2023-02-23T10:46:18.358Z,89.53
2023-02-23T10:47:18.298Z,89.84
2023-02-23T10:48:18.371Z,90.05
2023-02-23T10:49:18.284Z,89.94
2023-02-23T10:50:18.286Z,89.74
2023-02-23T10:51:18.482Z,89.84
2023-02-23T10:52:18.270Z,89.94
2023-02-23T10:53:18.228Z,90.15
2023-02-23T10:54:18.286Z,90.05
2023-02-23T10:55:18.220Z,89.84
2023-02-23T10:56:18.201Z,89.74
2023-02-23T10:57:18.231Z,89.58
2023-02-23T10:58:18.180Z,90.09
2023-02-23T10:59:18.171Z,89.68
2023-02-23T11:00:18.310Z,90.36
2023-02-23T11:01:19.042Z,90.66
2023-02-23T11:02:18.154Z,90.97
2023-02-23T11:03:18.115Z,90.77
2023-02-23T11:04:18.128Z,90.50
2023-02-23T11:05:18.468Z,90.86
2023-02-23T11:06:18.766Z,90.77
2023-02-23T11:07:18.175Z,90.66
2023-02-23T11:08:18.464Z,90.56
2023-02-23T11:09:18.443Z,90.97
2023-02-23T11:10:18.368Z,90.45
2023-02-23T11:11:18.796Z,89.39
2023-02-23T11:12:18.097Z,89.80
2023-02-23T11:13:17.997Z,88.88
2023-02-23T11:14:17.988Z,88.98
2023-02-23T11:15:17.975Z,89.09
2023-02-23T11:16:18.038Z,88.68
2023-02-23T11:17:18.001Z,88.47
2023-02-23T11:18:17.981Z,88.64
2023-02-23T11:19:17.980Z,88.33
2023-02-23T11:20:17.992Z,88.74
2023-02-23T11:21:18.105Z,89.04
2023-02-23T11:22:17.934Z,88.74
2023-02-23T11:23:17.936Z,88.74
2023-02-23T11:24:17.913Z,88.12
2023-02-23T11:25:17.866Z,88.12
2023-02-23T11:26:17.875Z,88.02
2023-02-23T11:27:17.846Z,88.02
2023-02-23T11:28:17.833Z,87.71
2023-02-23T11:29:22.954Z,88.64
2023-02-23T11:30:17.888Z,88.43
2023-02-23T11:31:18.336Z,88.23
2023-02-23T11:32:17.936Z,88.84
2023-02-23T11:33:17.766Z,88.64
2023-02-23T11:34:17.771Z,88.53
2023-02-23T11:35:17.744Z,88.74
2023-02-23T11:36:17.776Z,88.23
2023-02-23T11:37:17.721Z,88.02
2023-02-23T11:38:17.746Z,88.23
2023-02-23T11:39:17.707Z,88.23
2023-02-23T11:40:17.745Z,88.43
2023-02-23T11:41:18.279Z,88.33
2023-02-23T11:42:17.691Z,88.12
2023-02-23T11:43:17.653Z,88.12
2023-02-23T11:44:17.690Z,88.23
2023-02-23T11:45:17.707Z,88.29
2023-02-23T11:46:18.362Z,88.29
2023-02-23T11:47:17.649Z,87.57
2023-02-23T11:48:17.597Z,88.08
2023-02-23T11:49:17.599Z,87.88
2023-02-23T11:50:17.613Z,86.85
2023-02-23T11:51:17.614Z,87.53
2023-02-23T11:52:17.552Z,86.65
2023-02-23T11:53:17.539Z,86.91
2023-02-23T11:54:17.530Z,85.28
2023-02-23T11:55:17.547Z,85.69
2023-02-23T11:56:17.765Z,85.69
2023-02-23T11:57:17.532Z,84.98
2023-02-23T11:58:17.488Z,84.06
2023-02-23T11:59:17.475Z,84.36
2023-02-23T12:00:17.463Z,84.57
2023-02-23T12:01:17.500Z,84.88
2023-02-23T12:02:17.463Z,84.36
2023-02-23T12:03:17.488Z,83.51
2023-02-23T12:04:17.417Z,83.44
2023-02-23T12:05:17.466Z,83.24
2023-02-23T12:06:17.701Z,84.26
2023-02-23T12:07:17.417Z,83.75
2023-02-23T12:08:17.387Z,84.06
2023-02-23T12:09:17.400Z,84.16
2023-02-23T12:10:17.426Z,83.95
2023-02-23T12:11:17.352Z,83.95
2023-02-23T12:12:17.392Z,83.95
2023-02-23T12:13:17.333Z,83.65
2023-02-23T12:14:17.343Z,84.16
2023-02-23T12:15:17.336Z,83.75
2023-02-23T12:16:17.606Z,83.95
2023-02-23T12:17:17.281Z,84.57
2023-02-23T12:18:17.301Z,83.95
2023-02-23T12:19:17.277Z,83.95
2023-02-23T12:20:17.244Z,84.98
2023-02-23T12:21:17.244Z,85.69
2023-02-23T12:22:17.216Z,85.69
2023-02-23T12:23:17.204Z,84.98
2023-02-23T12:24:17.207Z,84.98
2023-02-23T12:25:17.213Z,85.59
2023-02-23T12:26:17.678Z,85.89
2023-02-23T12:27:17.194Z,85.79
2023-02-23T12:28:19.144Z,85.59
2023-02-23T12:29:17.146Z,84.83
2023-02-23T12:30:17.145Z,84.74
2023-02-23T12:31:17.197Z,84.33
2023-02-23T12:32:17.216Z,84.01
2023-02-23T12:33:17.136Z,83.81
2023-02-23T12:34:17.106Z,82.96
2023-02-23T12:35:17.077Z,82.45
2023-02-23T12:36:17.420Z,84.18
2023-02-23T12:37:17.041Z,83.37
2023-02-23T12:38:17.027Z,82.31
2023-02-23T12:39:17.051Z,82.21
2023-02-23T12:40:17.013Z,82.71
2023-02-23T12:41:17.013Z,82.82
2023-02-23T12:42:16.984Z,82.00
2023-02-23T12:43:16.985Z,82.24
2023-02-23T12:44:16.987Z,83.06
2023-02-23T12:45:16.998Z,82.24
2023-02-23T12:46:17.008Z,83.06
2023-02-23T12:47:16.954Z,82.24
2023-02-23T12:48:16.949Z,82.51
2023-02-23T12:49:16.906Z,82.35
2023-02-23T12:50:16.896Z,82.82
2023-02-23T12:51:19.029Z,82.10
2023-02-23T12:52:16.884Z,81.70